الصفحة الرئيسية
METAR-TAF:

METAR-TAF

مطار :

داروين, أستراليا

دائرة عرض: 12-24S, خط طول: 130-52E, ارتفاع: 31 متر

مراقبة الطقس الحالي

تاريخ ووقت الإصدار 24 دقيقة قبل الساعة 00:00UTC
ريح 9 عقدة من الشمال/الشمال الشرقي
درجة الحرارة 26°درجة مئوية
الرطوبة 70%
ضغط 1015 hPa
الرؤية 10 كم أو أكثر
غيوم قليلة على ارتفاع 2800 قدم

METAR: YPDN 180000Z 03009KT 9999 FEW028 26/20 Q1015 NOSIG

زمن: 09:54 (00:24 UTC)

توقعات

تاريخ ووقت الإصدار 1ساعة و 17 دقيقة قبل الساعة 23:07UTC
التوقعات صالحة من18 الساعة 00 UTC إلى 19 الساعة 06 UTC
ريح 4 عقدة من الشرق
الرؤية 10 كم أو أكثر
غيوم قليلة على ارتفاع 2000 قدم
من 18 الساعة 0400 UTC
ريح 10 عقدة من الشمال/الشمال الغربي
الرؤية 10 كم أو أكثر
غيوم قليلة على ارتفاع 4000 قدم
من 18 الساعة 1500 UTC
ريح 7 عقدة من الشرق/الجنوب الشرقي
الرؤية 10 كم أو أكثر
غيوم قليلة على ارتفاع 1500 قدم
من 19 الساعة 0000 UTC
ريح 12 عقدة من الشرق
الرؤية 10 كم أو أكثر
الغيوم لا تقل 1500 م ولا وجود لمزنة ركامية السحاب الأسود

TAF: YPDN 172307Z 1800/1906 09004KT 9999 FEW020 FM180400 34010KT 9999 FEW040 FM181500 12007KT 9999 FEW015 FM190000 09012KT CAVOK

أرصاد الطقس والتوقعات من أكثر من 4000 مطار (تقارير الطقس للمطار METAR والتنبؤ بالطقس بالمطارTAF).

المحطات المتاحة هي النقط الصفراء والحمراء على الخريطة.

حرك المؤشر فوق النقطة لمعرفة اسم المحطة.

ثم انقر لمعرفة أرصاد وتوقعات الطقس.

لتغيير الخارطة: اضغط على الأزرار الخضراء مع رمز الصليب الأسود للتكبير. على الزر الأخضر مع شرطة للتصغير، أو على الأسهم الخضراء للخرائط المجاورة.


METAR-TAF: